createdAt,value
2019-04-03T00:00:14.800Z,32.28
2019-04-03T00:02:43.443Z,31.62
2019-04-03T00:05:12.154Z,33.50
2019-04-03T00:07:41.292Z,29.92
2019-04-03T00:10:10.508Z,29.15
2019-04-03T00:12:41.016Z,29.98
2019-04-03T00:15:09.374Z,29.60
2019-04-03T00:17:37.890Z,29.02
2019-04-03T00:20:07.921Z,32.13
2019-04-03T00:22:37.768Z,31.85
2019-04-03T00:25:07.453Z,32.13
2019-04-03T00:27:36.025Z,33.78
2019-04-03T00:30:07.051Z,29.98
2019-04-03T00:32:35.757Z,25.88
2019-04-03T00:35:07.001Z,31.10
2019-04-03T00:37:35.555Z,30.62
2019-04-03T00:40:09.158Z,30.57
2019-04-03T00:42:37.645Z,31.20
2019-04-03T00:45:07.258Z,28.17
2019-04-03T00:47:36.387Z,29.60
2019-04-03T00:50:06.717Z,30.20
2019-04-03T00:52:36.986Z,33.20
2019-04-03T00:55:06.636Z,35.15
2019-04-03T00:57:35.109Z,32.38
2019-04-03T01:00:05.374Z,32.48
2019-04-03T01:02:33.901Z,28.75
2019-04-03T01:05:02.675Z,32.60
2019-04-03T01:07:31.157Z,33.67
2019-04-03T01:09:59.998Z,32.75
2019-04-03T01:12:30.393Z,31.45
2019-04-03T01:15:01.087Z,34.70
2019-04-03T01:17:30.352Z,32.20
2019-04-03T01:19:58.808Z,33.08
2019-04-03T01:22:27.362Z,31.42
2019-04-03T01:24:55.871Z,32.17
2019-04-03T01:27:24.360Z,34.05
2019-04-03T01:29:52.899Z,30.45
2019-04-03T01:32:21.376Z,32.63
2019-04-03T01:34:51.594Z,34.50
2019-04-03T01:37:20.053Z,36.20
2019-04-03T01:39:51.417Z,31.90
2019-04-03T01:42:22.347Z,35.17
2019-04-03T01:44:50.102Z,37.78
2019-04-03T01:47:18.801Z,33.53
2019-04-03T01:49:50.614Z,36.42
2019-04-03T01:52:19.094Z,38.78
2019-04-03T01:54:47.581Z,31.50
2019-04-03T01:57:16.089Z,36.13
2019-04-03T01:59:44.539Z,34.25
2019-04-03T02:02:14.536Z,37.50
2019-04-03T02:04:43.088Z,35.88
2019-04-03T02:07:14.101Z,37.48
2019-04-03T02:09:44.642Z,38.30
2019-04-03T02:12:13.472Z,40.10
2019-04-03T02:14:42.075Z,39.58
2019-04-03T02:17:12.480Z,35.43
2019-04-03T02:19:40.986Z,39.88
2019-04-03T02:22:12.456Z,35.63
2019-04-03T02:24:41.094Z,39.78
2019-04-03T02:27:09.567Z,38.45
2019-04-03T02:29:40.424Z,41.37
2019-04-03T02:32:08.360Z,42.35
2019-04-03T02:34:36.989Z,41.30
2019-04-03T02:37:08.738Z,40.85
2019-04-03T02:39:37.327Z,43.75
2019-04-03T02:42:09.850Z,39.05
2019-04-03T02:44:40.326Z,38.70
2019-04-03T02:47:08.883Z,36.90
2019-04-03T02:49:39.458Z,41.55
2019-04-03T02:52:07.947Z,38.63
2019-04-03T02:54:39.489Z,41.20
2019-04-03T02:57:11.461Z,39.78
2019-04-03T02:59:39.960Z,43.20
2019-04-03T03:02:11.424Z,39.40
2019-04-03T03:04:39.050Z,40.35
2019-04-03T03:07:07.822Z,40.65
2019-04-03T03:09:37.589Z,40.08
2019-04-03T03:12:06.654Z,42.27
2019-04-03T03:14:39.385Z,42.58
2019-04-03T03:17:08.016Z,43.13
2019-04-03T03:19:37.601Z,39.85
2019-04-03T03:22:08.119Z,35.20
2019-04-03T03:24:37.016Z,40.25
2019-04-03T03:27:08.093Z,37.15
2019-04-03T03:29:36.109Z,38.83
2019-04-03T03:32:15.776Z,41.08
2019-04-03T03:34:51.020Z,44.45
2019-04-03T03:37:14.593Z,40.78
2019-04-03T03:39:44.645Z,40.33
2019-04-03T03:42:15.417Z,40.58
2019-04-03T03:44:46.059Z,38.88
2019-04-03T03:47:15.564Z,37.53
2019-04-03T03:49:48.666Z,34.88
2019-04-03T03:52:19.032Z,40.48
2019-04-03T03:54:51.074Z,37.30
2019-04-03T03:57:20.182Z,38.33
2019-04-03T03:59:52.487Z,37.88
2019-04-03T04:02:21.632Z,35.10
2019-04-03T04:04:52.596Z,37.20
2019-04-03T04:07:20.783Z,39.05
2019-04-03T04:09:51.757Z,38.65
2019-04-03T04:12:21.051Z,39.63
2019-04-03T04:14:49.895Z,40.50
2019-04-03T04:17:19.054Z,42.10
2019-04-03T04:19:47.724Z,39.98
2019-04-03T04:22:18.193Z,36.70
2019-04-03T04:24:47.163Z,41.95
2019-04-03T04:27:19.630Z,31.48
2019-04-03T04:29:48.532Z,31.52
2019-04-03T04:32:17.101Z,37.05
2019-04-03T04:34:50.033Z,35.35
2019-04-03T04:37:19.026Z,36.28
2019-04-03T04:39:47.994Z,34.38
2019-04-03T04:42:16.601Z,34.80
2019-04-03T04:44:45.103Z,33.05
2019-04-03T04:47:15.112Z,36.23
2019-04-03T04:49:43.796Z,33.92
2019-04-03T04:52:12.290Z,34.85
2019-04-03T04:54:42.926Z,32.48
2019-04-03T04:57:11.350Z,31.27
2019-04-03T04:59:40.080Z,33.67
2019-04-03T05:02:10.389Z,37.42
2019-04-03T05:04:39.186Z,35.75
2019-04-03T05:07:08.273Z,37.48
2019-04-03T05:09:36.780Z,35.33
2019-04-03T05:12:05.386Z,35.50
2019-04-03T05:14:33.941Z,32.30
2019-04-03T05:17:02.581Z,31.85
2019-04-03T05:19:31.419Z,33.90
2019-04-03T05:22:02.248Z,31.95
2019-04-03T05:25:18.973Z,37.00
2019-04-03T05:27:47.522Z,30.30
2019-04-03T05:30:30.049Z,32.73
2019-04-03T05:32:59.263Z,33.88
2019-04-03T05:35:27.755Z,40.28
2019-04-03T05:37:56.288Z,33.20
2019-04-03T05:40:26.204Z,36.73
2019-04-03T05:42:55.633Z,34.05
2019-04-03T05:45:27.032Z,33.90
2019-04-03T05:47:55.531Z,35.03
2019-04-03T05:50:25.729Z,34.33
2019-04-03T05:52:54.437Z,35.15
2019-04-03T05:55:23.013Z,38.53
2019-04-03T05:58:02.712Z,35.98
2019-04-03T06:00:31.223Z,35.50
2019-04-03T06:02:59.706Z,35.90
2019-04-03T06:05:28.190Z,32.15
2019-04-03T06:07:58.490Z,34.67
2019-04-03T06:10:31.600Z,28.92
2019-04-03T06:12:59.544Z,34.05
2019-04-03T06:15:28.362Z,33.28
2019-04-03T06:17:56.828Z,31.82
2019-04-03T06:20:25.388Z,34.65
2019-04-03T06:22:54.114Z,33.63
2019-04-03T06:25:23.015Z,32.88
2019-04-03T06:27:51.663Z,33.92
2019-04-03T06:30:20.426Z,32.40
2019-04-03T06:32:49.016Z,35.33
2019-04-03T06:35:17.639Z,33.78
2019-04-03T06:37:46.090Z,32.85
2019-04-03T06:40:14.822Z,33.33
2019-04-03T06:42:44.962Z,31.40
2019-04-03T06:45:15.604Z,34.70
2019-04-03T06:47:43.886Z,33.53
2019-04-03T06:50:13.497Z,31.20
2019-04-03T06:52:42.476Z,28.00
2019-04-03T06:55:11.106Z,30.45
2019-04-03T06:57:40.036Z,33.67
2019-04-03T07:00:09.139Z,26.65
2019-04-03T07:02:37.805Z,31.77
2019-04-03T07:05:10.803Z,29.15
2019-04-03T07:07:39.521Z,27.85
2019-04-03T07:10:09.469Z,31.07
2019-04-03T07:12:38.235Z,33.98
2019-04-03T07:15:07.818Z,32.20
2019-04-03T07:17:36.451Z,29.27
2019-04-03T07:20:13.603Z,31.65
2019-04-03T07:22:36.489Z,32.78
2019-04-03T07:25:07.325Z,27.98
2019-04-03T07:27:41.642Z,30.17
2019-04-03T07:30:09.293Z,26.42
2019-04-03T07:32:37.931Z,28.80
2019-04-03T07:35:10.132Z,29.00
2019-04-03T07:37:37.296Z,31.33
2019-04-03T07:40:09.047Z,25.95
2019-04-03T07:42:37.887Z,28.47
2019-04-03T07:45:08.001Z,30.37
2019-04-03T07:47:36.670Z,27.82
2019-04-03T07:50:10.397Z,27.50
2019-04-03T07:52:38.185Z,27.60
2019-04-03T07:55:17.250Z,27.82
2019-04-03T07:57:45.725Z,28.25
2019-04-03T08:00:14.744Z,27.80
2019-04-03T08:02:47.948Z,26.40
2019-04-03T08:05:14.214Z,28.32
2019-04-03T08:07:42.753Z,27.48
2019-04-03T08:10:12.067Z,26.45
2019-04-03T08:12:40.618Z,26.57
2019-04-03T08:15:09.391Z,27.65
2019-04-03T08:17:38.522Z,26.87
2019-04-03T08:20:10.300Z,25.08
2019-04-03T08:22:42.086Z,27.85
2019-04-03T08:25:12.536Z,25.70
2019-04-03T08:27:41.330Z,27.65
2019-04-03T08:30:10.519Z,25.02
2019-04-03T08:32:40.507Z,26.90
2019-04-03T08:35:20.804Z,24.55
2019-04-03T08:37:41.960Z,24.98
2019-04-03T08:40:12.442Z,28.62
2019-04-03T08:42:40.920Z,27.25
2019-04-03T08:45:12.678Z,27.93
2019-04-03T08:47:46.145Z,29.60
2019-04-03T08:50:12.707Z,30.52
2019-04-03T08:52:41.320Z,28.25
2019-04-03T08:55:14.045Z,31.75
2019-04-03T08:57:45.647Z,29.00
2019-04-03T09:00:14.115Z,29.05
2019-04-03T09:02:43.879Z,31.52
2019-04-03T09:05:15.004Z,33.88
2019-04-03T09:07:43.611Z,28.55
2019-04-03T09:10:13.794Z,32.73
2019-04-03T09:12:42.303Z,32.58
2019-04-03T09:15:12.786Z,31.75
2019-04-03T09:17:42.889Z,38.78
2019-04-03T09:20:13.509Z,40.75
2019-04-03T09:22:41.910Z,44.20
2019-04-03T09:25:13.967Z,41.13
2019-04-03T09:27:42.591Z,45.38
2019-04-03T09:30:15.763Z,38.20
2019-04-03T09:32:46.377Z,45.48
2019-04-03T09:35:15.528Z,50.03
2019-04-03T09:37:46.372Z,46.13
2019-04-03T09:40:17.273Z,45.05
2019-04-03T09:42:45.712Z,51.63
2019-04-03T09:45:15.101Z,54.73
2019-04-03T09:47:46.336Z,62.13
2019-04-03T09:50:16.613Z,72.40
2019-04-03T09:52:49.437Z,63.10
2019-04-03T09:55:15.512Z,59.08
2019-04-03T09:57:44.002Z,72.40
2019-04-03T10:00:15.872Z,65.40
2019-04-03T10:02:48.886Z,66.20
2019-04-03T10:05:18.481Z,67.35
2019-04-03T10:07:47.117Z,70.15
2019-04-03T10:10:17.153Z,69.77
2019-04-03T10:12:48.005Z,67.78
2019-04-03T10:18:47.574Z,73.30
2019-04-03T10:21:16.145Z,70.42
2019-04-03T10:23:44.692Z,72.53
2019-04-03T10:26:13.741Z,63.73
2019-04-03T10:28:43.243Z,68.87
2019-04-03T10:31:12.716Z,68.05
2019-04-03T10:33:41.261Z,66.77
2019-04-03T10:36:11.424Z,58.55
2019-04-03T10:38:42.689Z,60.08
2019-04-03T10:41:11.702Z,60.43
2019-04-03T10:43:42.262Z,67.22
2019-04-03T10:46:10.909Z,68.33
2019-04-03T10:48:39.353Z,74.32
2019-04-03T10:51:09.288Z,69.75
2019-04-03T10:53:40.925Z,73.78
2019-04-03T10:56:09.449Z,69.92
2019-04-03T10:58:40.246Z,62.83
2019-04-03T11:01:08.409Z,62.93
2019-04-03T11:03:38.433Z,74.30
2019-04-03T11:06:07.238Z,68.75
2019-04-03T11:08:36.008Z,72.87
2019-04-03T11:11:05.128Z,84.15
2019-04-03T11:13:34.297Z,68.67
2019-04-03T11:16:03.489Z,57.50
2019-04-03T11:18:32.458Z,61.63
2019-04-03T11:21:01.109Z,69.77
2019-04-03T11:23:37.815Z,72.67
2019-04-03T11:25:59.875Z,73.30
2019-04-03T11:28:28.471Z,61.85
2019-04-03T11:31:00.841Z,62.95
2019-04-03T11:33:27.478Z,60.55
2019-04-03T11:35:56.403Z,65.62
2019-04-03T11:38:29.240Z,62.73
2019-04-03T11:40:57.049Z,60.85
2019-04-03T11:43:25.534Z,62.33
2019-04-03T11:45:54.139Z,62.43
2019-04-03T11:48:22.676Z,55.03
2019-04-03T11:50:51.187Z,58.38
2019-04-03T11:53:19.625Z,58.02
2019-04-03T11:55:48.721Z,57.00
2019-04-03T11:58:22.736Z,60.73
2019-04-03T12:00:52.672Z,59.17
2019-04-03T12:03:21.164Z,53.70
2019-04-03T12:05:50.375Z,56.80
2019-04-03T12:08:18.854Z,55.45
2019-04-03T12:10:47.422Z,56.35
2019-04-03T12:13:15.913Z,56.42
2019-04-03T12:15:44.862Z,49.18
2019-04-03T12:18:13.362Z,51.13
2019-04-03T12:20:44.766Z,51.30
2019-04-03T12:23:12.343Z,55.23
2019-04-03T12:29:12.364Z,52.27
2019-04-03T12:31:41.080Z,53.85
2019-04-03T12:34:09.862Z,50.55
2019-04-03T12:36:38.362Z,56.58
2019-04-03T12:39:09.865Z,49.25
2019-04-03T12:41:38.423Z,54.88
2019-04-03T12:44:06.904Z,51.42
2019-04-03T12:46:40.837Z,46.23
2019-04-03T12:49:08.855Z,44.42
2019-04-03T12:51:37.682Z,33.65
2019-04-03T12:54:06.548Z,32.53
2019-04-03T12:56:38.217Z,39.05
2019-04-03T12:59:09.006Z,34.73
2019-04-03T13:01:36.991Z,43.38
2019-04-03T13:04:05.743Z,36.35
2019-04-03T13:06:34.710Z,47.30
2019-04-03T13:09:05.272Z,45.05
2019-04-03T13:11:36.485Z,43.25
2019-04-03T13:14:08.361Z,41.88
2019-04-03T13:16:37.793Z,38.45
2019-04-03T13:19:06.604Z,43.58
2019-04-03T13:21:39.794Z,38.17
2019-04-03T13:24:12.409Z,42.08
2019-04-03T13:26:39.198Z,37.60
2019-04-03T13:29:08.997Z,41.88
2019-04-03T13:31:37.978Z,37.25
2019-04-03T13:34:10.177Z,38.53
2019-04-03T13:36:37.109Z,36.68
2019-04-03T13:39:07.612Z,38.95
2019-04-03T13:41:36.080Z,38.23
2019-04-03T13:44:04.699Z,38.73
2019-04-03T13:46:36.451Z,38.53
2019-04-03T13:49:05.219Z,39.18
2019-04-03T13:51:34.074Z,40.92
2019-04-03T13:54:08.586Z,40.60
2019-04-03T13:56:37.909Z,42.23
2019-04-03T13:59:09.154Z,43.73
2019-04-03T14:01:40.021Z,44.18
2019-04-03T14:04:07.900Z,41.55
2019-04-03T14:06:37.129Z,41.00
2019-04-03T14:09:07.454Z,39.05
2019-04-03T14:11:35.981Z,40.88
2019-04-03T14:14:06.730Z,37.42
2019-04-03T14:16:35.592Z,40.58
2019-04-03T14:19:04.869Z,36.98
2019-04-03T14:21:35.704Z,39.98
2019-04-03T14:24:08.274Z,37.17
2019-04-03T14:26:35.774Z,38.08
2019-04-03T14:29:07.391Z,35.70
2019-04-03T14:31:37.370Z,35.40
2019-04-03T14:34:05.148Z,34.45
2019-04-03T14:36:33.688Z,36.68
2019-04-03T14:39:03.513Z,29.12
2019-04-03T14:41:34.996Z,32.30
2019-04-03T14:44:03.492Z,31.87
2019-04-03T14:46:32.433Z,31.33
2019-04-03T14:49:03.095Z,28.60
2019-04-03T14:51:34.919Z,28.50
2019-04-03T14:54:11.191Z,32.50
2019-04-03T14:56:35.920Z,31.42
2019-04-03T14:59:13.708Z,31.37
2019-04-03T15:01:35.214Z,29.42
2019-04-03T15:04:04.134Z,28.42
2019-04-03T15:06:32.673Z,29.57
2019-04-03T15:09:01.368Z,28.40
2019-04-03T15:11:32.833Z,28.12
2019-04-03T15:14:03.612Z,30.05
2019-04-03T15:16:33.598Z,27.35
2019-04-03T15:19:02.633Z,26.73
2019-04-03T15:21:31.802Z,25.77
2019-04-03T15:24:00.415Z,25.72
2019-04-03T15:26:31.973Z,27.42
2019-04-03T15:29:02.275Z,22.73
2019-04-03T15:31:31.127Z,25.97
2019-04-03T15:33:59.628Z,23.87
2019-04-03T15:36:28.167Z,25.32
2019-04-03T15:38:58.799Z,24.47
2019-04-03T15:41:28.661Z,26.93
2019-04-03T15:43:57.210Z,22.00
2019-04-03T15:46:27.139Z,23.15
2019-04-03T15:49:03.625Z,22.95
2019-04-03T15:51:32.146Z,25.30
2019-04-03T15:54:03.812Z,26.97
2019-04-03T15:56:32.936Z,22.45
2019-04-03T15:59:02.965Z,22.22
2019-04-03T16:01:32.235Z,25.70
2019-04-03T16:04:03.543Z,23.67
2019-04-03T16:06:35.933Z,24.12
2019-04-03T16:09:07.973Z,24.07
2019-04-03T16:11:41.587Z,24.07
2019-04-03T16:14:10.279Z,23.42
2019-04-03T16:16:39.141Z,23.70
2019-04-03T16:19:08.370Z,23.10
2019-04-03T16:21:38.304Z,21.73
2019-04-03T16:24:11.383Z,22.45
2019-04-03T16:26:37.114Z,20.25
2019-04-03T16:29:06.890Z,21.40
2019-04-03T16:31:36.129Z,21.77
2019-04-03T16:34:08.609Z,21.57
2019-04-03T16:36:35.138Z,19.20
2019-04-03T16:39:05.389Z,20.48
2019-04-03T16:41:33.846Z,22.02
2019-04-03T16:44:02.396Z,20.50
2019-04-03T16:46:30.941Z,22.22
2019-04-03T16:49:00.009Z,20.62
2019-04-03T16:51:29.202Z,20.25
2019-04-03T16:54:02.013Z,20.50
2019-04-03T16:56:33.871Z,21.52
2019-04-03T16:59:08.123Z,21.37
2019-04-03T17:01:40.833Z,21.05
2019-04-03T17:04:10.424Z,22.58
2019-04-03T17:06:39.514Z,21.80
2019-04-03T17:09:10.663Z,23.27
2019-04-03T17:11:39.289Z,20.85
2019-04-03T17:14:09.397Z,20.55
2019-04-03T17:16:40.667Z,22.30
2019-04-03T17:19:09.189Z,22.17
2019-04-03T17:21:39.021Z,22.85
2019-04-03T17:24:08.560Z,22.32
2019-04-03T17:26:48.330Z,23.05
2019-04-03T17:29:08.146Z,20.62
2019-04-03T17:31:36.711Z,25.62
2019-04-03T17:34:07.524Z,22.82
2019-04-03T17:36:37.116Z,23.62
2019-04-03T17:39:08.217Z,23.50
2019-04-03T17:41:40.818Z,23.57
2019-04-03T17:44:09.298Z,22.67
2019-04-03T17:46:40.188Z,19.32
2019-04-03T17:49:08.927Z,22.98
2019-04-03T17:51:37.420Z,22.90
2019-04-03T17:54:42.393Z,27.52
2019-04-03T17:57:13.443Z,26.10
2019-04-03T17:59:41.133Z,27.90
2019-04-03T18:02:09.689Z,25.25
2019-04-03T18:04:38.167Z,26.10
2019-04-03T18:07:06.645Z,27.27
2019-04-03T18:09:37.705Z,29.57
2019-04-03T18:12:06.261Z,26.42
2019-04-03T18:14:36.282Z,24.32
2019-04-03T18:17:04.840Z,26.68
2019-04-03T18:19:37.744Z,25.52
2019-04-03T18:22:04.123Z,26.68
2019-04-03T18:24:32.612Z,22.73
2019-04-03T18:27:02.561Z,26.30
2019-04-03T18:29:45.492Z,27.40
2019-04-03T18:32:15.395Z,24.72
2019-04-03T18:34:51.153Z,25.23
2019-04-03T18:37:19.152Z,24.45
2019-04-03T18:39:51.974Z,25.27
2019-04-03T18:42:25.665Z,24.75
2019-04-03T18:44:54.077Z,25.82
2019-04-03T18:47:22.634Z,23.50
2019-04-03T18:49:55.315Z,20.55
2019-04-03T18:52:28.253Z,25.40
2019-04-03T18:54:58.341Z,28.57
2019-04-03T18:57:26.822Z,26.12
2019-04-03T18:59:56.469Z,31.40
2019-04-03T19:02:27.650Z,29.00
2019-04-03T19:05:01.862Z,29.23
2019-04-03T19:07:26.378Z,28.38
2019-04-03T19:10:06.321Z,32.33
2019-04-03T19:12:35.547Z,29.72
2019-04-03T19:14:58.304Z,34.03
2019-04-03T19:17:27.458Z,34.85
2019-04-03T19:20:09.796Z,32.20
2019-04-03T19:22:26.357Z,33.75
2019-04-03T19:24:54.832Z,34.45
2019-04-03T19:27:24.836Z,28.55
2019-04-03T19:29:56.717Z,32.90
2019-04-03T19:32:25.260Z,27.90
2019-04-03T19:34:58.250Z,24.45
2019-04-03T19:37:26.796Z,22.42
2019-04-03T19:39:55.432Z,22.58
2019-04-03T19:42:23.911Z,25.65
2019-04-03T19:44:52.451Z,29.37
2019-04-03T19:47:22.806Z,31.25
2019-04-03T19:49:52.232Z,26.02
2019-04-03T19:52:20.725Z,58.50
2019-04-03T19:54:49.644Z,27.95
2019-04-03T19:57:22.423Z,44.03
2019-04-03T19:59:50.887Z,22.52
2019-04-03T20:02:22.114Z,21.90
2019-04-03T20:04:51.284Z,18.57
2019-04-03T20:07:40.986Z,19.73
2019-04-03T20:10:11.215Z,24.55
2019-04-03T20:12:39.844Z,26.10
2019-04-03T20:15:09.154Z,25.92
2019-04-03T20:17:37.635Z,93.37
2019-04-03T20:20:07.951Z,31.80
2019-04-03T20:22:38.211Z,30.85
2019-04-03T20:25:07.211Z,28.62
2019-04-03T20:27:35.760Z,26.55
2019-04-03T20:30:06.587Z,31.45
2019-04-03T20:32:35.062Z,38.98
2019-04-03T20:35:04.191Z,36.10
2019-04-03T20:37:32.678Z,44.13
2019-04-03T20:40:05.806Z,45.80
2019-04-03T20:42:34.447Z,52.05
2019-04-03T20:45:03.075Z,57.58
2019-04-03T20:47:31.555Z,69.32
2019-04-03T20:50:00.041Z,56.10
2019-04-03T20:52:30.039Z,56.45
2019-04-03T20:54:58.522Z,60.30
2019-04-03T20:57:26.990Z,54.42
2019-04-03T21:00:01.800Z,59.48
2019-04-03T21:02:25.835Z,57.53
2019-04-03T21:04:57.073Z,53.30
2019-04-03T21:07:25.523Z,52.83
2019-04-03T21:09:53.995Z,53.95
2019-04-03T21:12:22.452Z,58.45
2019-04-03T21:14:50.946Z,52.53
2019-04-03T21:17:19.495Z,52.55
2019-04-03T21:19:47.977Z,53.58
2019-04-03T21:22:16.594Z,55.70
2019-04-03T21:24:45.078Z,54.80
2019-04-03T21:27:15.170Z,55.33
2019-04-03T21:29:43.715Z,54.50
2019-04-03T21:32:13.826Z,56.25
2019-04-03T21:34:42.937Z,54.45
2019-04-03T21:37:13.850Z,65.15
2019-04-03T21:39:43.549Z,63.65
2019-04-03T21:42:12.065Z,63.15
2019-04-03T21:44:40.537Z,63.40
2019-04-03T21:47:11.467Z,53.30
2019-04-03T21:49:39.206Z,64.80
2019-04-03T21:52:08.947Z,64.82
2019-04-03T21:54:37.375Z,62.50
2019-04-03T21:57:06.814Z,58.23
2019-04-03T21:59:35.385Z,63.60
2019-04-03T22:02:04.386Z,58.20
2019-04-03T22:04:35.681Z,60.00
2019-04-03T22:07:04.277Z,59.70
2019-04-03T22:09:32.747Z,58.65
2019-04-03T22:12:01.263Z,63.17
2019-04-03T22:14:29.749Z,60.65
2019-04-03T22:16:58.505Z,68.55
2019-04-03T22:19:27.746Z,67.50
2019-04-03T22:21:58.339Z,69.87
2019-04-03T22:24:26.915Z,65.85
2019-04-03T22:26:55.381Z,66.30
2019-04-03T22:29:23.857Z,68.47
2019-04-03T22:31:54.439Z,69.92
2019-04-03T22:34:22.523Z,67.00
2019-04-03T22:36:50.983Z,64.97
2019-04-03T22:39:19.481Z,66.72
2019-04-03T22:41:48.007Z,69.67
2019-04-03T22:44:17.115Z,72.17
2019-04-03T22:46:46.338Z,69.65
2019-04-03T22:49:14.822Z,65.52
2019-04-03T22:51:43.416Z,56.73
2019-04-03T22:54:12.695Z,60.28
2019-04-03T22:56:41.806Z,65.78
2019-04-03T22:59:10.362Z,63.80
2019-04-03T23:01:39.041Z,63.90
2019-04-03T23:04:07.523Z,68.80
2019-04-03T23:06:36.414Z,67.35
2019-04-03T23:09:08.962Z,66.25
2019-04-03T23:11:37.520Z,63.55
2019-04-03T23:14:07.535Z,63.52
2019-04-03T23:16:36.151Z,67.62
2019-04-03T23:19:04.668Z,66.50
2019-04-03T23:21:33.146Z,70.80
2019-04-03T23:24:01.612Z,71.28
2019-04-03T23:26:32.064Z,70.15
2019-04-03T23:29:00.285Z,70.50
2019-04-03T23:31:28.759Z,65.40
2019-04-03T23:33:59.089Z,66.57
2019-04-03T23:36:27.559Z,67.92
2019-04-03T23:38:56.739Z,64.60
2019-04-03T23:41:25.655Z,65.03
2019-04-03T23:43:55.696Z,62.67
2019-04-03T23:46:24.215Z,67.47
2019-04-03T23:48:52.732Z,66.35
2019-04-03T23:51:23.422Z,63.17
2019-04-03T23:53:51.392Z,67.92
2019-04-03T23:56:19.862Z,73.75
2019-04-03T23:58:48.353Z,67.22
